sensor_id;sensor_type;location;lat;lon;timestamp;pressure;altitude;pressure_sealevel;temperature;humidity
40205;BME280;26963;42.666;23.366;2024-01-30T00:01:26;96883.72;;;1.82;48.56
40205;BME280;26963;42.666;23.366;2024-01-30T00:03:52;96845.03;;;1.30;49.21
40205;BME280;26963;42.666;23.366;2024-01-30T00:06:21;96879.91;;;1.48;50.05
40205;BME280;26963;42.666;23.366;2024-01-30T00:08:47;96878.81;;;1.42;50.45
40205;BME280;26963;42.666;23.366;2024-01-30T00:11:15;96867.31;;;1.28;50.28
40205;BME280;26963;42.666;23.366;2024-01-30T00:13:40;96882.50;;;1.62;49.68
40205;BME280;26963;42.666;23.366;2024-01-30T00:16:06;96890.44;;;1.62;49.46
40205;BME280;26963;42.666;23.366;2024-01-30T00:18:32;96868.72;;;1.45;49.06
40205;BME280;26963;42.666;23.366;2024-01-30T00:20:58;96894.56;;;1.50;49.99
40205;BME280;26963;42.666;23.366;2024-01-30T00:23:23;96879.72;;;1.49;49.69
40205;BME280;26963;42.666;23.366;2024-01-30T00:25:50;96893.44;;;1.59;49.20
40205;BME280;26963;42.666;23.366;2024-01-30T00:28:15;96760.59;;;0.87;49.66
40205;BME280;26963;42.666;23.366;2024-01-30T00:30:41;96851.13;;;1.31;50.21
40205;BME280;26963;42.666;23.366;2024-01-30T00:33:07;96891.00;;;1.43;50.86
40205;BME280;26963;42.666;23.366;2024-01-30T00:35:33;96863.53;;;1.16;51.41
40205;BME280;26963;42.666;23.366;2024-01-30T00:37:59;96877.31;;;1.18;51.58
40205;BME280;26963;42.666;23.366;2024-01-30T00:40:24;96825.00;;;0.85;50.80
40205;BME280;26963;42.666;23.366;2024-01-30T00:42:50;96893.25;;;1.24;51.10
40205;BME280;26963;42.666;23.366;2024-01-30T00:45:16;96861.59;;;1.24;51.15
40205;BME280;26963;42.666;23.366;2024-01-30T00:47:43;96893.03;;;1.41;49.98
40205;BME280;26963;42.666;23.366;2024-01-30T00:50:09;96871.31;;;1.24;50.70
40205;BME280;26963;42.666;23.366;2024-01-30T00:52:35;96890.16;;;1.21;51.18
40205;BME280;26963;42.666;23.366;2024-01-30T00:55:01;96905.06;;;1.13;52.61
40205;BME280;26963;42.666;23.366;2024-01-30T00:57:28;96899.44;;;1.02;51.97
40205;BME280;26963;42.666;23.366;2024-01-30T00:59:53;96884.09;;;1.05;52.80
40205;BME280;26963;42.666;23.366;2024-01-30T01:02:19;96845.75;;;0.88;52.84
40205;BME280;26963;42.666;23.366;2024-01-30T01:04:45;96791.69;;;0.62;52.30
40205;BME280;26963;42.666;23.366;2024-01-30T01:07:11;96884.88;;;1.21;51.93
40205;BME280;26963;42.666;23.366;2024-01-30T01:09:37;96846.09;;;0.85;53.07
40205;BME280;26963;42.666;23.366;2024-01-30T01:12:03;96883.25;;;1.05;51.86
40205;BME280;26963;42.666;23.366;2024-01-30T01:14:29;96871.19;;;0.95;51.78
40205;BME280;26963;42.666;23.366;2024-01-30T01:16:55;96891.34;;;1.03;51.45
40205;BME280;26963;42.666;23.366;2024-01-30T01:19:20;96887.53;;;1.21;51.06
40205;BME280;26963;42.666;23.366;2024-01-30T01:21:46;96892.78;;;1.21;52.12
40205;BME280;26963;42.666;23.366;2024-01-30T01:24:12;96866.25;;;1.07;51.98
40205;BME280;26963;42.666;23.366;2024-01-30T01:26:37;96885.22;;;1.18;52.01
40205;BME280;26963;42.666;23.366;2024-01-30T01:29:03;96796.59;;;0.65;51.53
40205;BME280;26963;42.666;23.366;2024-01-30T01:31:36;96890.25;;;1.12;51.77
40205;BME280;26963;42.666;23.366;2024-01-30T01:34:06;96892.16;;;1.04;52.34
40205;BME280;26963;42.666;23.366;2024-01-30T01:36:31;96886.72;;;1.05;52.35
40205;BME280;26963;42.666;23.366;2024-01-30T01:38:57;96759.13;;;0.33;52.62
40205;BME280;26963;42.666;23.366;2024-01-30T01:41:22;96894.16;;;1.17;52.81
40205;BME280;26963;42.666;23.366;2024-01-30T01:43:48;96886.47;;;1.00;52.88
40205;BME280;26963;42.666;23.366;2024-01-30T01:46:13;96861.38;;;0.74;52.96
40205;BME280;26963;42.666;23.366;2024-01-30T01:48:39;96886.47;;;0.85;52.96
40205;BME280;26963;42.666;23.366;2024-01-30T01:51:06;96903.00;;;0.94;53.31
40205;BME280;26963;42.666;23.366;2024-01-30T01:53:32;96890.28;;;0.83;52.32
40205;BME280;26963;42.666;23.366;2024-01-30T01:55:58;96851.38;;;0.85;51.71
40205;BME280;26963;42.666;23.366;2024-01-30T01:58:26;96887.53;;;0.91;52.09
40205;BME280;26963;42.666;23.366;2024-01-30T02:00:54;96903.63;;;0.96;52.58
40205;BME280;26963;42.666;23.366;2024-01-30T02:03:21;96905.25;;;0.97;52.80
40205;BME280;26963;42.666;23.366;2024-01-30T02:05:47;96893.47;;;0.93;52.38
40205;BME280;26963;42.666;23.366;2024-01-30T02:08:13;96775.38;;;0.22;51.69
40205;BME280;26963;42.666;23.366;2024-01-30T02:10:39;96899.16;;;1.11;52.42
40205;BME280;26963;42.666;23.366;2024-01-30T02:13:04;96898.13;;;1.27;50.93
40205;BME280;26963;42.666;23.366;2024-01-30T02:15:30;96903.13;;;1.37;50.04
40205;BME280;26963;42.666;23.366;2024-01-30T02:17:56;96894.69;;;1.27;51.39
40205;BME280;26963;42.666;23.366;2024-01-30T02:20:23;96824.03;;;0.56;51.85
40205;BME280;26963;42.666;23.366;2024-01-30T02:22:52;96901.88;;;1.18;52.51
40205;BME280;26963;42.666;23.366;2024-01-30T02:25:18;96824.28;;;0.76;51.19
40205;BME280;26963;42.666;23.366;2024-01-30T02:27:43;96890.50;;;1.18;51.70
40205;BME280;26963;42.666;23.366;2024-01-30T02:30:10;96688.69;;;0.05;51.99
40205;BME280;26963;42.666;23.366;2024-01-30T02:32:35;96884.75;;;1.29;50.40
40205;BME280;26963;42.666;23.366;2024-01-30T02:35:01;96896.97;;;1.30;50.59
40205;BME280;26963;42.666;23.366;2024-01-30T02:37:27;96852.06;;;1.08;50.21
40205;BME280;26963;42.666;23.366;2024-01-30T02:39:52;96894.59;;;1.20;50.39
40205;BME280;26963;42.666;23.366;2024-01-30T02:42:18;96865.47;;;0.92;50.36
40205;BME280;26963;42.666;23.366;2024-01-30T02:44:43;96864.25;;;1.09;50.88
40205;BME280;26963;42.666;23.366;2024-01-30T02:47:09;96847.19;;;1.05;50.53
40205;BME280;26963;42.666;23.366;2024-01-30T02:49:35;96845.53;;;1.04;49.56
40205;BME280;26963;42.666;23.366;2024-01-30T02:52:00;96876.97;;;1.21;50.10
40205;BME280;26963;42.666;23.366;2024-01-30T02:54:26;96803.78;;;0.71;51.79
40205;BME280;26963;42.666;23.366;2024-01-30T02:56:52;96868.81;;;1.16;51.81
40205;BME280;26963;42.666;23.366;2024-01-30T02:59:17;96588.97;;;-0.79;52.36
40205;BME280;26963;42.666;23.366;2024-01-30T03:01:44;96823.38;;;0.84;51.65
40205;BME280;26963;42.666;23.366;2024-01-30T03:04:10;96890.94;;;1.36;50.47
40205;BME280;26963;42.666;23.366;2024-01-30T03:06:36;96895.47;;;1.42;50.14
40205;BME280;26963;42.666;23.366;2024-01-30T03:09:02;96796.66;;;0.87;50.02
40205;BME280;26963;42.666;23.366;2024-01-30T03:11:28;96881.06;;;1.23;50.48
40205;BME280;26963;42.666;23.366;2024-01-30T03:13:53;96734.66;;;0.39;51.28
40205;BME280;26963;42.666;23.366;2024-01-30T03:16:19;96885.66;;;1.36;50.28
40205;BME280;26963;42.666;23.366;2024-01-30T03:18:45;96744.94;;;0.34;50.60
40205;BME280;26963;42.666;23.366;2024-01-30T03:21:10;96886.06;;;1.33;49.51
40205;BME280;26963;42.666;23.366;2024-01-30T03:23:36;96773.50;;;0.67;49.73
40205;BME280;26963;42.666;23.366;2024-01-30T03:26:01;96801.56;;;0.90;48.70
40205;BME280;26963;42.666;23.366;2024-01-30T03:28:29;96809.47;;;0.90;49.19
40205;BME280;26963;42.666;23.366;2024-01-30T03:30:54;96863.78;;;1.21;48.71
40205;BME280;26963;42.666;23.366;2024-01-30T03:33:20;96865.78;;;1.19;48.89
40205;BME280;26963;42.666;23.366;2024-01-30T03:35:45;96784.59;;;0.77;48.87
40205;BME280;26963;42.666;23.366;2024-01-30T03:38:11;96876.63;;;1.45;48.97
40205;BME280;26963;42.666;23.366;2024-01-30T03:40:37;96849.88;;;1.27;49.72
40205;BME280;26963;42.666;23.366;2024-01-30T03:43:02;96875.13;;;1.36;48.51
40205;BME280;26963;42.666;23.366;2024-01-30T03:45:28;96868.06;;;1.22;49.23
40205;BME280;26963;42.666;23.366;2024-01-30T03:47:53;96723.88;;;0.34;50.29
40205;BME280;26963;42.666;23.366;2024-01-30T03:50:19;96873.75;;;1.25;50.11
40205;BME280;26963;42.666;23.366;2024-01-30T03:52:45;96872.22;;;1.31;48.42
40205;BME280;26963;42.666;23.366;2024-01-30T03:55:10;96725.84;;;0.62;48.49
40205;BME280;26963;42.666;23.366;2024-01-30T03:57:36;96839.38;;;1.34;48.02
40205;BME280;26963;42.666;23.366;2024-01-30T04:00:01;96876.38;;;1.40;50.35
40205;BME280;26963;42.666;23.366;2024-01-30T04:02:30;96861.69;;;1.31;51.15
40205;BME280;26963;42.666;23.366;2024-01-30T04:04:55;96853.06;;;1.22;51.24
40205;BME280;26963;42.666;23.366;2024-01-30T04:07:21;96853.25;;;1.21;51.32
40205;BME280;26963;42.666;23.366;2024-01-30T04:09:47;96796.22;;;0.83;51.57
40205;BME280;26963;42.666;23.366;2024-01-30T04:12:12;96862.63;;;1.45;50.92
40205;BME280;26963;42.666;23.366;2024-01-30T04:14:39;96778.56;;;0.84;51.25
40205;BME280;26963;42.666;23.366;2024-01-30T04:17:04;96833.31;;;1.33;50.57
40205;BME280;26963;42.666;23.366;2024-01-30T04:19:30;96796.75;;;1.30;50.29
40205;BME280;26963;42.666;23.366;2024-01-30T04:21:55;96870.78;;;1.87;48.69
40205;BME280;26963;42.666;23.366;2024-01-30T04:24:21;96851.91;;;1.68;48.93
40205;BME280;26963;42.666;23.366;2024-01-30T04:26:46;96860.72;;;1.97;48.83
40205;BME280;26963;42.666;23.366;2024-01-30T04:29:12;96856.44;;;1.96;48.06
40205;BME280;26963;42.666;23.366;2024-01-30T04:31:38;96866.69;;;2.06;47.74
40205;BME280;26963;42.666;23.366;2024-01-30T04:34:03;96862.84;;;2.08;47.35
40205;BME280;26963;42.666;23.366;2024-01-30T04:36:29;96844.63;;;1.92;46.56
40205;BME280;26963;42.666;23.366;2024-01-30T04:38:55;96793.00;;;1.61;46.41
40205;BME280;26963;42.666;23.366;2024-01-30T04:41:20;96833.75;;;1.80;46.16
40205;BME280;26963;42.666;23.366;2024-01-30T04:43:46;96750.03;;;1.24;46.07
40205;BME280;26963;42.666;23.366;2024-01-30T04:46:11;96784.31;;;1.45;46.29
40205;BME280;26963;42.666;23.366;2024-01-30T04:48:37;96785.06;;;1.39;45.97
40205;BME280;26963;42.666;23.366;2024-01-30T04:51:02;96860.78;;;1.82;46.42
40205;BME280;26963;42.666;23.366;2024-01-30T04:53:30;96887.91;;;1.98;46.90
40205;BME280;26963;42.666;23.366;2024-01-30T04:55:56;96876.06;;;1.87;47.35
40205;BME280;26963;42.666;23.366;2024-01-30T04:58:22;96903.50;;;1.92;47.47
40205;BME280;26963;42.666;23.366;2024-01-30T05:00:47;96898.13;;;2.01;46.30
40205;BME280;26963;42.666;23.366;2024-01-30T05:03:17;96887.25;;;1.89;46.78
40205;BME280;26963;42.666;23.366;2024-01-30T05:05:43;96896.88;;;1.97;47.19
40205;BME280;26963;42.666;23.366;2024-01-30T05:08:09;96788.38;;;1.26;47.15
40205;BME280;26963;42.666;23.366;2024-01-30T05:10:34;96879.44;;;1.81;47.68
40205;BME280;26963;42.666;23.366;2024-01-30T05:13:00;96879.31;;;1.89;47.43
40205;BME280;26963;42.666;23.366;2024-01-30T05:15:25;96834.69;;;1.51;47.86
40205;BME280;26963;42.666;23.366;2024-01-30T05:17:51;96877.19;;;1.77;48.34
40205;BME280;26963;42.666;23.366;2024-01-30T05:20:17;96846.50;;;1.55;47.22
40205;BME280;26963;42.666;23.366;2024-01-30T05:22:43;96908.09;;;1.84;48.27
40205;BME280;26963;42.666;23.366;2024-01-30T05:25:11;96816.94;;;1.23;47.94
40205;BME280;26963;42.666;23.366;2024-01-30T05:27:37;96911.66;;;1.76;48.68
40205;BME280;26963;42.666;23.366;2024-01-30T05:30:05;96829.59;;;1.12;47.98
40205;BME280;26963;42.666;23.366;2024-01-30T05:32:31;96835.59;;;1.21;47.32
40205;BME280;26963;42.666;23.366;2024-01-30T05:34:57;96885.00;;;1.49;48.01
40205;BME280;26963;42.666;23.366;2024-01-30T05:37:22;96904.31;;;1.71;47.16
40205;BME280;26963;42.666;23.366;2024-01-30T05:39:48;96882.88;;;1.59;48.45
40205;BME280;26963;42.666;23.366;2024-01-30T05:42:14;96904.88;;;1.67;49.51
40205;BME280;26963;42.666;23.366;2024-01-30T05:44:40;96891.88;;;1.65;49.57
40205;BME280;26963;42.666;23.366;2024-01-30T05:47:06;96773.94;;;0.86;47.25
40205;BME280;26963;42.666;23.366;2024-01-30T05:49:31;96914.25;;;1.69;46.79
40205;BME280;26963;42.666;23.366;2024-01-30T05:51:57;96897.59;;;1.69;46.77
40205;BME280;26963;42.666;23.366;2024-01-30T05:54:23;96903.94;;;1.74;46.87
40205;BME280;26963;42.666;23.366;2024-01-30T05:56:48;96914.88;;;1.71;47.75
40205;BME280;26963;42.666;23.366;2024-01-30T05:59:14;96887.69;;;1.56;47.21
40205;BME280;26963;42.666;23.366;2024-01-30T06:01:48;96874.09;;;1.52;45.98
40205;BME280;26963;42.666;23.366;2024-01-30T06:04:14;96787.84;;;0.94;45.82
40205;BME280;26963;42.666;23.366;2024-01-30T06:06:40;96893.63;;;1.58;46.56
40205;BME280;26963;42.666;23.366;2024-01-30T06:09:06;96911.06;;;1.74;46.03
40205;BME280;26963;42.666;23.366;2024-01-30T06:11:34;96908.72;;;1.64;46.75
40205;BME280;26963;42.666;23.366;2024-01-30T06:14:00;96893.34;;;1.53;46.41
40205;BME280;26963;42.666;23.366;2024-01-30T06:16:26;96913.88;;;1.72;46.74
40205;BME280;26963;42.666;23.366;2024-01-30T06:18:55;96876.88;;;1.51;46.17
40205;BME280;26963;42.666;23.366;2024-01-30T06:21:21;96899.41;;;1.68;45.91
40205;BME280;26963;42.666;23.366;2024-01-30T06:23:47;96875.03;;;1.44;45.25
40205;BME280;26963;42.666;23.366;2024-01-30T06:26:12;96922.22;;;1.76;46.06
40205;BME280;26963;42.666;23.366;2024-01-30T06:28:38;96902.31;;;1.73;46.47
40205;BME280;26963;42.666;23.366;2024-01-30T06:31:03;96887.66;;;1.71;46.26
40205;BME280;26963;42.666;23.366;2024-01-30T06:33:29;96889.75;;;1.75;46.23
40205;BME280;26963;42.666;23.366;2024-01-30T06:35:55;96824.25;;;1.42;46.33
40205;BME280;26963;42.666;23.366;2024-01-30T06:38:20;96911.56;;;2.06;45.92
40205;BME280;26963;42.666;23.366;2024-01-30T06:40:46;96916.91;;;2.12;47.57
40205;BME280;26963;42.666;23.366;2024-01-30T06:43:11;96878.53;;;1.95;48.42
40205;BME280;26963;42.666;23.366;2024-01-30T06:45:37;96914.47;;;2.39;47.22
40205;BME280;26963;42.666;23.366;2024-01-30T06:48:03;96899.63;;;2.60;47.30
40205;BME280;26963;42.666;23.366;2024-01-30T06:50:29;96775.13;;;2.13;46.68
40205;BME280;26963;42.666;23.366;2024-01-30T06:52:54;96913.06;;;3.42;45.51
40205;BME280;26963;42.666;23.366;2024-01-30T06:55:20;96919.09;;;3.78;44.96
40205;BME280;26963;42.666;23.366;2024-01-30T06:57:45;96919.97;;;4.12;44.26
40205;BME280;26963;42.666;23.366;2024-01-30T07:00:11;96849.66;;;4.02;42.71
40205;BME280;26963;42.666;23.366;2024-01-30T07:02:37;96835.59;;;4.35;42.42
40205;BME280;26963;42.666;23.366;2024-01-30T07:05:03;96868.94;;;5.03;41.75
40205;BME280;26963;42.666;23.366;2024-01-30T07:07:28;96924.16;;;5.79;41.58
40205;BME280;26963;42.666;23.366;2024-01-30T07:09:54;96924.81;;;6.13;40.88
40205;BME280;26963;42.666;23.366;2024-01-30T07:12:23;96928.06;;;6.47;39.08
40205;BME280;26963;42.666;23.366;2024-01-30T07:14:51;96926.41;;;6.78;36.79
40205;BME280;26963;42.666;23.366;2024-01-30T07:17:17;96840.63;;;6.57;34.97
40205;BME280;26963;42.666;23.366;2024-01-30T07:19:42;96786.94;;;6.23;33.56
40205;BME280;26963;42.666;23.366;2024-01-30T07:22:08;96883.56;;;7.05;33.25
40205;BME280;26963;42.666;23.366;2024-01-30T07:24:34;96921.44;;;7.44;33.38
40205;BME280;26963;42.666;23.366;2024-01-30T07:27:00;96905.75;;;7.35;32.11
40205;BME280;26963;42.666;23.366;2024-01-30T07:29:25;96906.31;;;7.56;32.12
40205;BME280;26963;42.666;23.366;2024-01-30T07:31:51;96903.94;;;7.66;31.75
40205;BME280;26963;42.666;23.366;2024-01-30T07:34:17;96915.44;;;7.79;31.50
40205;BME280;26963;42.666;23.366;2024-01-30T07:36:42;96910.09;;;7.97;31.51
40205;BME280;26963;42.666;23.366;2024-01-30T07:39:08;96903.47;;;7.88;30.76
40205;BME280;26963;42.666;23.366;2024-01-30T07:41:35;96914.38;;;7.98;30.72
40205;BME280;26963;42.666;23.366;2024-01-30T07:44:00;96911.19;;;7.59;31.13
40205;BME280;26963;42.666;23.366;2024-01-30T07:46:26;96910.31;;;7.65;31.48
40205;BME280;26963;42.666;23.366;2024-01-30T07:48:52;96867.13;;;7.45;31.33
40205;BME280;26963;42.666;23.366;2024-01-30T07:51:17;96902.25;;;7.84;30.77
40205;BME280;26963;42.666;23.366;2024-01-30T07:53:43;96848.56;;;7.68;30.38
40205;BME280;26963;42.666;23.366;2024-01-30T07:56:10;96881.94;;;8.02;30.43
40205;BME280;26963;42.666;23.366;2024-01-30T07:58:36;96912.28;;;8.31;30.53
40205;BME280;26963;42.666;23.366;2024-01-30T08:01:02;96862.88;;;7.86;30.11
40205;BME280;26963;42.666;23.366;2024-01-30T08:03:28;96915.16;;;8.29;29.95
40205;BME280;26963;42.666;23.366;2024-01-30T08:05:53;96908.22;;;8.28;29.91
40205;BME280;26963;42.666;23.366;2024-01-30T08:08:19;96880.38;;;8.24;30.35
40205;BME280;26963;42.666;23.366;2024-01-30T08:10:45;96856.81;;;7.79;29.71
40205;BME280;26963;42.666;23.366;2024-01-30T08:13:10;96825.94;;;7.90;29.70
40205;BME280;26963;42.666;23.366;2024-01-30T08:15:36;96861.94;;;8.35;29.80
40205;BME280;26963;42.666;23.366;2024-01-30T08:18:02;96825.19;;;8.37;29.31
40205;BME280;26963;42.666;23.366;2024-01-30T08:20:27;96881.84;;;9.10;28.97
40205;BME280;26963;42.666;23.366;2024-01-30T08:22:53;96778.94;;;8.67;28.69
40205;BME280;26963;42.666;23.366;2024-01-30T08:25:18;96788.22;;;8.76;27.77
40205;BME280;26963;42.666;23.366;2024-01-30T08:27:44;96898.59;;;9.46;28.29
40205;BME280;26963;42.666;23.366;2024-01-30T08:30:10;96899.53;;;9.52;27.96
40205;BME280;26963;42.666;23.366;2024-01-30T08:32:36;96882.00;;;9.44;27.31
40205;BME280;26963;42.666;23.366;2024-01-30T08:35:02;96882.88;;;9.61;27.89
40205;BME280;26963;42.666;23.366;2024-01-30T08:37:30;96895.88;;;9.99;27.40
40205;BME280;26963;42.666;23.366;2024-01-30T08:39:56;96827.50;;;9.74;27.32
40205;BME280;26963;42.666;23.366;2024-01-30T08:42:22;96902.63;;;10.18;27.05
40205;BME280;26963;42.666;23.366;2024-01-30T08:44:51;96826.44;;;9.17;27.97
40205;BME280;26963;42.666;23.366;2024-01-30T08:47:18;96873.22;;;9.08;27.87
40205;BME280;26963;42.666;23.366;2024-01-30T08:49:44;96896.72;;;8.82;28.44
40205;BME280;26963;42.666;23.366;2024-01-30T08:52:10;96822.22;;;7.91;28.70
40205;BME280;26963;42.666;23.366;2024-01-30T08:54:36;96918.88;;;8.28;29.06
40205;BME280;26963;42.666;23.366;2024-01-30T08:57:02;96872.13;;;7.72;29.75
40205;BME280;26963;42.666;23.366;2024-01-30T08:59:27;96858.19;;;7.39;30.24
40205;BME280;26963;42.666;23.366;2024-01-30T09:01:53;96927.63;;;7.56;29.95
40205;BME280;26963;42.666;23.366;2024-01-30T09:04:23;96896.81;;;7.30;30.23
40205;BME280;26963;42.666;23.366;2024-01-30T09:06:49;96927.09;;;7.66;30.79
40205;BME280;26963;42.666;23.366;2024-01-30T09:09:15;96904.03;;;7.41;30.36
40205;BME280;26963;42.666;23.366;2024-01-30T09:11:40;96833.81;;;6.87;30.44
40205;BME280;26963;42.666;23.366;2024-01-30T09:14:06;96700.09;;;5.73;30.92
40205;BME280;26963;42.666;23.366;2024-01-30T09:16:32;96918.16;;;7.23;31.49
40205;BME280;26963;42.666;23.366;2024-01-30T09:18:57;96924.09;;;7.44;31.38
40205;BME280;26963;42.666;23.366;2024-01-30T09:21:23;96832.22;;;6.79;31.60
40205;BME280;26963;42.666;23.366;2024-01-30T09:23:49;96888.44;;;7.45;31.17
40205;BME280;26963;42.666;23.366;2024-01-30T09:26:14;96841.13;;;7.28;31.34
40205;BME280;26963;42.666;23.366;2024-01-30T09:28:40;96898.81;;;7.95;30.89
40205;BME280;26963;42.666;23.366;2024-01-30T09:31:11;96903.34;;;8.25;30.02
40205;BME280;26963;42.666;23.366;2024-01-30T09:33:38;96897.44;;;8.35;29.57
40205;BME280;26963;42.666;23.366;2024-01-30T09:36:05;96892.66;;;8.25;29.51
40205;BME280;26963;42.666;23.366;2024-01-30T09:38:31;96818.88;;;7.95;29.69
40205;BME280;26963;42.666;23.366;2024-01-30T09:41:00;96886.81;;;8.47;29.80
40205;BME280;26963;42.666;23.366;2024-01-30T09:43:32;96891.94;;;8.72;30.34
40205;BME280;26963;42.666;23.366;2024-01-30T09:45:59;96898.53;;;8.46;30.99
40205;BME280;26963;42.666;23.366;2024-01-30T09:48:27;96889.94;;;8.44;31.34
40205;BME280;26963;42.666;23.366;2024-01-30T09:50:54;96822.44;;;7.47;31.57
40205;BME280;26963;42.666;23.366;2024-01-30T09:53:20;96889.84;;;7.47;32.09
40205;BME280;26963;42.666;23.366;2024-01-30T09:55:47;96893.75;;;7.08;33.08
40205;BME280;26963;42.666;23.366;2024-01-30T09:58:13;96890.44;;;6.68;32.82
40205;BME280;26963;42.666;23.366;2024-01-30T10:00:39;96852.53;;;6.29;33.73
40205;BME280;26963;42.666;23.366;2024-01-30T10:03:04;96859.22;;;6.39;33.59
40205;BME280;26963;42.666;23.366;2024-01-30T10:05:31;96888.50;;;6.57;33.34
40205;BME280;26963;42.666;23.366;2024-01-30T10:07:59;96855.19;;;5.97;33.60
40205;BME280;26963;42.666;23.366;2024-01-30T10:10:25;96873.66;;;5.47;35.11
40205;BME280;26963;42.666;23.366;2024-01-30T10:12:51;96836.53;;;4.88;36.40
40205;BME280;26963;42.666;23.366;2024-01-30T10:15:18;96882.81;;;4.99;36.61
40205;BME280;26963;42.666;23.366;2024-01-30T10:17:47;96891.75;;;5.25;37.13
40205;BME280;26963;42.666;23.366;2024-01-30T10:20:12;96864.44;;;5.04;36.53
40205;BME280;26963;42.666;23.366;2024-01-30T10:22:40;96873.59;;;5.15;36.07
40205;BME280;26963;42.666;23.366;2024-01-30T10:25:09;96893.78;;;5.22;36.35
40205;BME280;26963;42.666;23.366;2024-01-30T10:27:35;96893.63;;;4.97;36.55
40205;BME280;26963;42.666;23.366;2024-01-30T10:30:00;96858.38;;;4.70;37.00
40205;BME280;26963;42.666;23.366;2024-01-30T10:32:27;96846.59;;;4.59;37.20
40205;BME280;26963;42.666;23.366;2024-01-30T10:34:52;96891.84;;;4.84;37.38
40205;BME280;26963;42.666;23.366;2024-01-30T10:37:18;96891.44;;;4.81;37.17
40205;BME280;26963;42.666;23.366;2024-01-30T10:39:46;96809.50;;;4.39;36.75
40205;BME280;26963;42.666;23.366;2024-01-30T10:42:25;96810.91;;;4.48;36.59
40205;BME280;26963;42.666;23.366;2024-01-30T10:45:06;96896.84;;;5.13;36.55
40205;BME280;26963;42.666;23.366;2024-01-30T10:47:35;96859.00;;;7.02;32.88
40205;BME280;26963;42.666;23.366;2024-01-30T10:50:04;96857.81;;;6.36;33.90
40205;BME280;26963;42.666;23.366;2024-01-30T10:52:31;96847.59;;;6.33;33.72
40205;BME280;26963;42.666;23.366;2024-01-30T10:54:58;96834.22;;;6.83;33.72
40205;BME280;26963;42.666;23.366;2024-01-30T10:57:24;96822.56;;;7.03;32.99
40205;BME280;26963;42.666;23.366;2024-01-30T10:59:56;96849.59;;;7.37;32.92
40205;BME280;26963;42.666;23.366;2024-01-30T11:02:23;96856.63;;;7.13;33.40
40205;BME280;26963;42.666;23.366;2024-01-30T11:04:54;96838.16;;;6.99;33.15
40205;BME280;26963;42.666;23.366;2024-01-30T11:07:25;96837.56;;;7.16;33.54
40205;BME280;26963;42.666;23.366;2024-01-30T11:10:03;96826.34;;;6.77;33.61
40205;BME280;26963;42.666;23.366;2024-01-30T11:12:31;96853.75;;;6.96;33.73
40205;BME280;26963;42.666;23.366;2024-01-30T11:17:40;96839.84;;;6.94;34.09
40205;BME280;26963;42.666;23.366;2024-01-30T11:20:10;96785.81;;;6.12;34.38
40205;BME280;26963;42.666;23.366;2024-01-30T11:22:35;96836.19;;;6.51;34.24
40205;BME280;26963;42.666;23.366;2024-01-30T11:25:01;96834.31;;;6.33;34.57
40205;BME280;26963;42.666;23.366;2024-01-30T11:27:30;96833.19;;;6.22;34.74
40205;BME280;26963;42.666;23.366;2024-01-30T11:30:06;96823.84;;;6.13;34.41
40205;BME280;26963;42.666;23.366;2024-01-30T11:32:33;96832.09;;;6.04;35.05
40205;BME280;26963;42.666;23.366;2024-01-30T11:34:59;96768.47;;;5.14;35.26
40205;BME280;26963;42.666;23.366;2024-01-30T11:37:25;96843.84;;;5.51;35.63
40205;BME280;26963;42.666;23.366;2024-01-30T11:39:53;96824.84;;;5.48;35.79
40205;BME280;26963;42.666;23.366;2024-01-30T11:42:19;96845.25;;;5.86;35.71
40205;BME280;26963;42.666;23.366;2024-01-30T11:44:48;96834.47;;;6.13;35.03
40205;BME280;26963;42.666;23.366;2024-01-30T11:47:14;96756.81;;;6.11;34.41
40205;BME280;26963;42.666;23.366;2024-01-30T11:49:41;96845.03;;;7.07;33.27
40205;BME280;26963;42.666;23.366;2024-01-30T11:52:07;96823.94;;;7.24;33.28
40205;BME280;26963;42.666;23.366;2024-01-30T11:54:32;96826.22;;;7.39;32.71
40205;BME280;26963;42.666;23.366;2024-01-30T11:56:58;96803.53;;;7.18;32.78
40205;BME280;26963;42.666;23.366;2024-01-30T11:59:25;96836.81;;;7.09;32.88
40205;BME280;26963;42.666;23.366;2024-01-30T12:01:51;96815.38;;;6.85;33.45
40205;BME280;26963;42.666;23.366;2024-01-30T12:04:17;96779.63;;;6.44;34.05
40205;BME280;26963;42.666;23.366;2024-01-30T12:06:43;96735.88;;;6.21;34.45
40205;BME280;26963;42.666;23.366;2024-01-30T12:09:09;96763.06;;;6.42;34.44
40205;BME280;26963;42.666;23.366;2024-01-30T12:11:47;96798.56;;;6.73;34.38
40205;BME280;26963;42.666;23.366;2024-01-30T12:14:14;96805.91;;;6.52;33.99
40205;BME280;26963;42.666;23.366;2024-01-30T12:16:40;96800.88;;;5.93;34.67
40205;BME280;26963;42.666;23.366;2024-01-30T12:19:07;96690.91;;;4.80;35.69
40205;BME280;26963;42.666;23.366;2024-01-30T12:21:34;96761.81;;;5.36;36.06
40205;BME280;26963;42.666;23.366;2024-01-30T12:24:00;96764.47;;;5.68;36.25
40205;BME280;26963;42.666;23.366;2024-01-30T12:26:26;96764.81;;;6.04;35.18
40205;BME280;26963;42.666;23.366;2024-01-30T12:28:55;96727.06;;;5.45;35.08
40205;BME280;26963;42.666;23.366;2024-01-30T12:31:27;96779.88;;;5.53;35.63
40205;BME280;26963;42.666;23.366;2024-01-30T12:33:53;96647.09;;;4.70;36.14
40205;BME280;26963;42.666;23.366;2024-01-30T12:36:19;96779.88;;;5.53;36.05
40205;BME280;26963;42.666;23.366;2024-01-30T12:38:44;96767.28;;;5.74;36.30
40205;BME280;26963;42.666;23.366;2024-01-30T12:41:10;96754.88;;;5.99;35.69
40205;BME280;26963;42.666;23.366;2024-01-30T12:43:36;96745.13;;;6.12;35.42
40205;BME280;26963;42.666;23.366;2024-01-30T12:46:03;96744.75;;;6.33;34.91
40205;BME280;26963;42.666;23.366;2024-01-30T12:48:28;96733.38;;;6.45;34.66
40205;BME280;26963;42.666;23.366;2024-01-30T12:50:56;96726.78;;;6.29;34.72
40205;BME280;26963;42.666;23.366;2024-01-30T12:53:21;96746.72;;;6.38;35.02
40205;BME280;26963;42.666;23.366;2024-01-30T12:55:47;96748.28;;;6.27;34.99
40205;BME280;26963;42.666;23.366;2024-01-30T12:58:15;96708.03;;;6.24;34.83